Hudgins, Virginia
Current Conditions -  °F | °C
As of 12:15 AM on Wednesday 26 Nov 2014 (Local Time) from KW75 Reporting Station
Overcast Overcast  
Wind Chill:   Ceiling: 8500
Heat Index:   Visibility: 10mi
Dew Point:   Wind: 0mph
Humidity: 84%   Direction: NA
Pressure: 30.11"   Gusts: NA
Location:  37.47°N, 76.33°W
Report Text: KW75 260515Z AUTO 00000KT 10SM SCT070 BKN085 OVC120 09/07 A3011 RMK AO1 T00920066
Loading
Personal Weather Stations






























Interactive Weather Map New forecast layout! Learn more

10-Day Weather Forecast

Advertisements
Track Severe Weather on mobile